Time;durP1;ratioP1;P1;durP2;ratioP2;P2;SDS_P1;SDS_P2;PMS_P1;PMS_P2;Temp;Humidity;BMP_temperature;BMP_pressure;BME280_temperature;BME280_humidity;BME280_pressure;Samples;Min_cycle;Max_cycle;Signal;HPM_P1;HPM_P2
2023/01/30 00:01:21;;;;;;;2.60;1.58;;;24.10;99.90;;;;;;5084078;28;20035;-70
2023/01/30 00:03:48;;;;;;;1.90;1.33;;;24.10;99.90;;;;;;5077653;28;20034;-71
2023/01/30 00:06:15;;;;;;;1.98;1.70;;;24.10;99.90;;;;;;5066921;28;20040;-71
2023/01/30 00:08:42;;;;;;;3.50;1.70;;;23.90;99.90;;;;;;5065246;28;20028;-68
2023/01/30 00:11:11;;;;;;;2.60;1.77;;;23.90;99.90;;;;;;5082226;28;20407;-65
2023/01/30 00:13:39;;;;;;;2.00;1.80;;;23.80;99.90;;;;;;5065843;28;20031;-66
2023/01/30 00:16:08;;;;;;;4.63;2.08;;;23.80;99.90;;;;;;5083853;28;20030;-64
2023/01/30 00:18:36;;;;;;;2.35;2.00;;;23.70;99.90;;;;;;5084155;28;20036;-66
2023/01/30 00:21:06;;;;;;;3.55;1.67;;;23.70;99.90;;;;;;5077551;28;20051;-69
2023/01/30 00:23:34;;;;;;;3.55;1.80;;;23.80;99.90;;;;;;5074489;28;20078;-66
2023/01/30 00:26:01;;;;;;;2.38;1.85;;;23.80;99.90;;;;;;5082452;28;20030;-67
2023/01/30 00:28:28;;;;;;;3.03;2.00;;;23.80;99.90;;;;;;5075879;28;20361;-67
2023/01/30 00:30:59;;;;;;;3.28;1.98;;;23.90;99.90;;;;;;5082062;28;20089;-67
2023/01/30 00:33:26;;;;;;;2.58;1.95;;;24.10;99.90;;;;;;5082216;28;20032;-69
2023/01/30 00:35:55;;;;;;;3.83;2.08;;;24.10;99.90;;;;;;5082763;28;20017;-66
2023/01/30 00:38:23;;;;;;;1.77;1.63;;;24.20;99.90;;;;;;5082454;28;20040;-66
2023/01/30 00:40:50;;;;;;;3.75;1.50;;;24.40;99.90;;;;;;5080281;28;20373;-65
2023/01/30 00:49:03;;;;;;;3.05;1.98;;;24.60;99.90;;;;;;5083218;28;20675;-68
2023/01/30 00:51:30;;;;;;;3.53;1.73;;;24.60;99.90;;;;;;5082832;28;20042;-66
2023/01/30 00:53:57;;;;;;;3.35;1.90;;;24.80;99.90;;;;;;5084636;28;20016;-69
2023/01/30 00:56:24;;;;;;;2.58;1.63;;;25.00;99.90;;;;;;5083178;28;20028;-65
2023/01/30 00:58:51;;;;;;;3.08;1.77;;;25.20;99.90;;;;;;5081157;28;20383;-64
2023/01/30 01:01:18;;;;;;;2.58;1.50;;;25.20;99.90;;;;;;5083794;28;20379;-64
2023/01/30 01:03:45;;;;;;;2.20;1.80;;;25.20;99.90;;;;;;5083446;28;20098;-66
2023/01/30 01:06:12;;;;;;;4.72;1.83;;;25.40;99.90;;;;;;5082581;28;20117;-64
2023/01/30 01:08:39;;;;;;;5.80;1.85;;;25.70;99.90;;;;;;5082102;28;20034;-64
2023/01/30 01:11:06;;;;;;;2.70;1.90;;;26.20;99.90;;;;;;5082660;28;20028;-65
2023/01/30 01:13:32;;;;;;;1.50;1.35;;;26.60;99.90;;;;;;5066719;28;20410;-67
2023/01/30 01:15:59;;;;;;;3.65;2.20;;;27.20;99.90;;;;;;5082818;28;20024;-68
2023/01/30 01:18:26;;;;;;;3.45;3.15;;;27.80;99.90;;;;;;5081850;28;20349;-66
2023/01/30 01:20:53;;;;;;;2.40;1.85;;;28.20;99.90;;;;;;5082367;28;20052;-68
2023/01/30 01:23:20;;;;;;;4.57;3.13;;;28.50;99.90;;;;;;5081809;28;20035;-65
2023/01/30 01:25:47;;;;;;;2.67;1.42;;;28.80;99.90;;;;;;5082724;28;20028;-67
2023/01/30 01:28:14;;;;;;;2.05;1.88;;;29.10;99.90;;;;;;5081597;28;20515;-67
2023/01/30 01:30:41;;;;;;;2.03;1.40;;;29.00;99.90;;;;;;5085292;28;20040;-70
2023/01/30 01:33:08;;;;;;;2.25;1.50;;;28.90;99.90;;;;;;5086120;28;20020;-68
2023/01/30 01:35:40;;;;;;;1.83;1.30;;;29.10;99.90;;;;;;5085634;28;20537;-68
2023/01/30 01:38:07;;;;;;;;;;;29.30;99.90;;;;;;5086752;28;20047;-68
2023/01/30 01:43:22;;;;;;;1.98;1.40;;;29.60;99.90;;;;;;5083636;28;20070;-68
2023/01/30 01:45:54;;;;;;;1.77;1.40;;;29.50;99.90;;;;;;5084952;28;20030;-68
2023/01/30 01:48:29;;;;;;;1.00;0.95;;;29.30;99.90;;;;;;5083809;28;20028;-66
2023/01/30 01:51:11;;;;;;;2.50;1.33;;;29.30;99.90;;;;;;5085857;28;20024;-68
2023/01/30 01:53:47;;;;;;;1.50;1.40;;;29.20;99.90;;;;;;5084776;28;20097;-67
2023/01/30 01:56:18;;;;;;;1.98;1.35;;;29.40;99.90;;;;;;5084716;28;20436;-67
2023/01/30 01:58:57;;;;;;;1.92;1.40;;;29.10;99.90;;;;;;5083353;28;20012;-66
2023/01/30 02:01:24;;;;;;;3.90;1.35;;;29.10;99.90;;;;;;5085208;28;20040;-68
2023/01/30 02:03:57;;;;;;;1.73;1.33;;;29.40;99.90;;;;;;5085562;28;20055;-66
2023/01/30 02:06:24;;;;;;;4.15;1.60;;;29.10;99.90;;;;;;5084573;28;20032;-67
2023/01/30 02:08:55;;;;;;;1.55;1.30;;;29.30;99.90;;;;;;5085337;28;20034;-64
2023/01/30 02:11:44;;;;;;;1.67;1.25;;;29.60;99.90;;;;;;5083954;28;20074;-66
2023/01/30 02:14:12;;;;;;;1.63;1.25;;;29.80;99.90;;;;;;5085639;28;20037;-66
2023/01/30 02:16:41;;;;;;;1.73;1.20;;;29.70;99.90;;;;;;5079918;28;20021;-67
2023/01/30 02:19:29;;;;;;;2.63;1.42;;;29.70;99.90;;;;;;5081075;28;20020;-67
2023/01/30 02:21:59;;;;;;;1.38;1.27;;;29.50;99.90;;;;;;5085576;28;20151;-66
2023/01/30 02:25:08;;;;;;;2.75;1.40;;;29.50;99.90;;;;;;5083608;28;20424;-67
2023/01/30 02:28:15;;;;;;;1.70;1.50;;;29.70;99.90;;;;;;5078678;28;20043;-65
2023/01/30 02:31:10;;;;;;;2.67;1.55;;;29.50;99.90;;;;;;5081377;28;20113;-65
2023/01/30 02:33:53;;;;;;;2.67;1.80;;;29.90;99.90;;;;;;5083921;28;20491;-67
2023/01/30 02:36:25;;;;;;;;;;;30.10;99.90;;;;;;5083612;28;20024;-65
2023/01/30 02:39:09;;;;;;;3.38;1.42;;;30.50;99.90;;;;;;5081428;28;19915;-68
2023/01/30 02:41:48;;;;;;;1.50;1.40;;;30.70;99.90;;;;;;5064028;28;20392;-66
2023/01/30 02:44:40;;;;;;;1.50;1.40;;;30.80;99.90;;;;;;5082203;28;20267;-66
2023/01/30 02:47:23;;;;;;;2.25;1.70;;;31.30;99.90;;;;;;5079429;28;20463;-67
2023/01/30 02:50:01;;;;;;;9.30;8.30;;;31.30;99.90;;;;;;5078545;28;20645;-67
2023/01/30 02:52:30;;;;;;;4.07;2.90;;;31.20;99.90;;;;;;5080094;28;20040;-67
2023/01/30 02:54:57;;;;;;;3.90;3.50;;;31.40;99.90;;;;;;5081668;28;20107;-67
2023/01/30 02:57:26;;;;;;;3.30;1.90;;;31.30;99.90;;;;;;5081371;28;20023;-67
2023/01/30 02:59:59;;;;;;;5.70;2.03;;;31.30;99.90;;;;;;5080287;28;20047;-67
2023/01/30 03:03:09;;;;;;;5.03;3.30;;;30.80;99.90;;;;;;5082883;28;20213;-65
2023/01/30 03:06:00;;;;;;;4.18;2.53;;;30.70;99.90;;;;;;5077141;28;20085;-68
2023/01/30 03:08:36;;;;;;;3.35;1.77;;;30.70;99.90;;;;;;5080122;28;20315;-67
2023/01/30 03:11:05;;;;;;;1.85;1.45;;;30.80;99.90;;;;;;5076304;28;20214;-66
2023/01/30 03:13:58;;;;;;;2.33;1.90;;;30.70;99.90;;;;;;5082556;28;20217;-64
2023/01/30 03:16:40;;;;;;;3.17;2.00;;;30.90;99.90;;;;;;5080687;28;20042;-66
2023/01/30 03:19:12;;;;;;;2.97;1.90;;;31.10;99.90;;;;;;5075670;28;20024;-67
2023/01/30 03:21:43;;;;;;;3.67;1.57;;;30.90;99.90;;;;;;5084000;28;20051;-67
2023/01/30 03:24:11;;;;;;;3.50;1.60;;;31.00;99.90;;;;;;5084046;28;20032;-66
2023/01/30 03:27:02;;;;;;;2.65;1.70;;;31.20;99.90;;;;;;5079088;28;20353;-67
2023/01/30 03:29:28;;;;;;;6.75;4.75;;;31.30;99.90;;;;;;5058811;28;20511;-67
2023/01/30 03:31:55;;;;;;;3.60;3.08;;;31.10;99.90;;;;;;5078645;28;20105;-72
2023/01/30 03:34:22;;;;;;;5.60;2.00;;;30.60;99.90;;;;;;5082737;28;20273;-67
2023/01/30 03:36:49;;;;;;;7.53;2.80;;;30.50;99.90;;;;;;5083210;28;20017;-65
2023/01/30 03:39:16;;;;;;;4.03;1.83;;;30.40;99.90;;;;;;5081590;28;20361;-63
2023/01/30 03:41:44;;;;;;;6.78;2.53;;;30.40;99.90;;;;;;5083179;28;20294;-64
2023/01/30 03:44:10;;;;;;;4.25;2.47;;;30.20;99.90;;;;;;5081101;28;20394;-62
2023/01/30 03:46:37;;;;;;;2.78;2.25;;;30.10;99.90;;;;;;5078261;28;20351;-63
2023/01/30 03:49:04;;;;;;;3.70;2.28;;;29.90;99.90;;;;;;5076159;28;20479;-66
2023/01/30 03:51:31;;;;;;;2.75;1.80;;;29.60;99.90;;;;;;5078997;28;20024;-67
2023/01/30 03:53:58;;;;;;;3.08;1.58;;;29.40;99.90;;;;;;5064009;28;20491;-64
2023/01/30 03:56:25;;;;;;;1.85;1.60;;;29.30;99.90;;;;;;5078679;28;20073;-65
2023/01/30 03:58:52;;;;;;;3.20;1.83;;;29.30;99.90;;;;;;5079643;28;20020;-62
2023/01/30 04:01:19;;;;;;;2.03;1.52;;;29.30;99.90;;;;;;5082328;28;20237;-69
2023/01/30 04:03:46;;;;;;;3.38;2.08;;;29.30;99.90;;;;;;5080732;28;20032;-64
2023/01/30 04:06:12;;;;;;;2.63;1.80;;;29.40;99.90;;;;;;5078342;28;20032;-65
2023/01/30 04:08:39;;;;;;;3.85;2.47;;;29.40;99.90;;;;;;5078943;28;20036;-66
2023/01/30 04:11:06;;;;;;;2.90;1.90;;;29.50;99.90;;;;;;5062898;28;20094;-67
2023/01/30 04:13:33;;;;;;;3.30;2.25;;;29.80;99.90;;;;;;5074046;28;20536;-67
2023/01/30 04:16:21;;;;;;;4.22;2.50;;;29.90;99.90;;;;;;5083298;28;20210;-62
2023/01/30 04:18:48;;;;;;;2.58;2.35;;;30.50;99.90;;;;;;5078657;28;20028;-64
2023/01/30 04:21:15;;;;;;;5.65;4.00;;;30.50;99.90;;;;;;5081887;28;20074;-61
2023/01/30 04:23:43;;;;;;;3.30;1.90;;;30.40;99.90;;;;;;5083720;28;20036;-66
2023/01/30 04:26:14;;;;;;;3.15;2.85;;;30.50;99.90;;;;;;5083317;28;20020;-63
2023/01/30 04:28:43;;;;;;;4.40;2.83;;;30.10;99.90;;;;;;5078217;28;20054;-70
2023/01/30 04:31:10;;;;;;;3.42;1.88;;;30.00;99.90;;;;;;5081979;28;20020;-65
2023/01/30 04:33:38;;;;;;;4.22;2.13;;;29.80;99.90;;;;;;5080769;28;20028;-66
2023/01/30 04:36:07;;;;;;;2.55;1.95;;;29.70;99.90;;;;;;5085872;28;20008;-65
2023/01/30 04:38:35;;;;;;;3.42;2.20;;;29.60;99.90;;;;;;5076707;28;20022;-64
2023/01/30 04:41:03;;;;;;;2.95;2.28;;;29.50;99.90;;;;;;5084772;28;20038;-66
2023/01/30 04:43:31;;;;;;;4.90;2.55;;;29.40;99.90;;;;;;5079410;28;20087;-64
2023/01/30 04:45:58;;;;;;;2.50;2.30;;;29.40;99.90;;;;;;5087917;28;20253;-62
2023/01/30 04:48:25;;;;;;;3.08;2.20;;;29.20;99.90;;;;;;5082464;28;20060;-63
2023/01/30 04:50:54;;;;;;;3.42;1.67;;;28.90;99.90;;;;;;5082482;28;20035;-64
2023/01/30 04:53:22;;;;;;;2.92;2.42;;;28.70;99.90;;;;;;5079152;28;20093;-65
2023/01/30 04:55:49;;;;;;;2.20;1.98;;;28.60;99.90;;;;;;5082165;28;20025;-63
2023/01/30 04:58:20;;;;;;;2.60;1.92;;;28.50;99.90;;;;;;5076574;28;20499;-68
2023/01/30 05:00:47;;;;;;;4.38;2.40;;;28.50;99.90;;;;;;5076479;28;20445;-64
2023/01/30 05:03:18;;;;;;;3.97;2.15;;;28.50;99.90;;;;;;5080701;28;20093;-69
2023/01/30 05:05:48;;;;;;;2.10;1.77;;;28.60;99.90;;;;;;5084034;28;20028;-62
2023/01/30 05:08:16;;;;;;;1.88;1.55;;;28.70;99.90;;;;;;5081822;28;20036;-67
2023/01/30 05:10:43;;;;;;;2.63;1.70;;;28.60;99.90;;;;;;5082560;28;20024;-63
2023/01/30 05:13:09;;;;;;;2.75;1.70;;;28.60;99.90;;;;;;5086043;28;20103;-65
2023/01/30 05:15:38;;;;;;;3.30;2.17;;;28.50;99.90;;;;;;5067079;28;20034;-66
2023/01/30 05:18:05;;;;;;;3.40;2.88;;;28.30;99.90;;;;;;5089176;28;20575;-67
2023/01/30 05:20:31;;;;;;;2.88;1.80;;;28.00;99.90;;;;;;5085509;28;20024;-63
2023/01/30 05:22:58;;;;;;;2.25;1.85;;;28.00;99.90;;;;;;5085182;28;20055;-63
2023/01/30 05:25:25;;;;;;;4.10;2.83;;;27.90;99.90;;;;;;5086413;28;20392;-62
2023/01/30 05:27:52;;;;;;;2.47;2.00;;;27.80;99.90;;;;;;5085142;28;20024;-65
2023/01/30 05:30:19;;;;;;;2.33;1.83;;;27.70;99.90;;;;;;5084457;28;20028;-65
2023/01/30 05:32:47;;;;;;;2.10;1.90;;;27.70;99.90;;;;;;5067579;28;20321;-70
2023/01/30 05:35:14;;;;;;;3.40;1.73;;;27.70;99.90;;;;;;5084689;28;20024;-65
2023/01/30 05:37:40;;;;;;;2.03;1.65;;;27.50;99.90;;;;;;5081873;28;20052;-66
2023/01/30 05:40:08;;;;;;;2.90;2.53;;;27.40;99.90;;;;;;5083968;28;20566;-65
2023/01/30 05:42:35;;;;;;;2.67;2.45;;;27.40;99.90;;;;;;5085007;28;20455;-65
2023/01/30 05:45:02;;;;;;;3.30;1.92;;;27.30;99.90;;;;;;5082414;28;20024;-64
2023/01/30 05:47:29;;;;;;;4.20;1.90;;;27.30;99.90;;;;;;5083529;28;20024;-65
2023/01/30 05:49:55;;;;;;;2.03;1.60;;;27.10;99.90;;;;;;5066608;28;20024;-64
2023/01/30 05:52:22;;;;;;;2.58;1.63;;;27.00;99.90;;;;;;5082163;28;20032;-64
2023/01/30 05:54:49;;;;;;;5.60;4.97;;;26.80;99.90;;;;;;5065081;28;20031;-73
2023/01/30 05:57:16;;;;;;;4.40;2.75;;;26.50;99.90;;;;;;5082287;28;20020;-68
2023/01/30 05:59:43;;;;;;;5.70;2.47;;;26.40;99.90;;;;;;5083540;28;20035;-66
2023/01/30 06:02:10;;;;;;;5.43;2.78;;;26.50;99.90;;;;;;5085586;28;20019;-65
2023/01/30 06:04:37;;;;;;;5.85;3.25;;;26.20;99.90;;;;;;5084151;28;20036;-65
2023/01/30 06:07:04;;;;;;;10.13;3.55;;;26.10;99.90;;;;;;5080719;28;20031;-67
2023/01/30 06:09:31;;;;;;;5.82;3.78;;;25.90;99.90;;;;;;5083212;28;20016;-62
2023/01/30 06:11:57;;;;;;;5.15;3.63;;;25.60;99.90;;;;;;5084008;28;20060;-70
2023/01/30 06:14:24;;;;;;;4.38;3.38;;;25.30;99.90;;;;;;5082861;28;20058;-63
2023/01/30 06:16:51;;;;;;;4.40;3.38;;;25.00;99.90;;;;;;5082605;28;20024;-65
2023/01/30 06:19:18;;;;;;;3.13;2.83;;;24.80;99.90;;;;;;5082760;28;20063;-68
2023/01/30 06:21:45;;;;;;;2.25;1.88;;;24.60;99.90;;;;;;5083276;28;20051;-73
2023/01/30 06:24:12;;;;;;;3.58;2.90;;;24.40;99.90;;;;;;5083391;28;20114;-64
2023/01/30 06:26:39;;;;;;;2.78;2.50;;;24.30;99.90;;;;;;5082550;28;20028;-69
2023/01/30 06:29:06;;;;;;;2.53;2.33;;;24.10;99.90;;;;;;5081618;28;20100;-69
2023/01/30 06:31:33;;;;;;;3.30;2.83;;;23.90;99.90;;;;;;5082150;28;20217;-62
2023/01/30 06:34:00;;;;;;;3.10;2.75;;;23.70;99.90;;;;;;5083248;28;20468;-65
2023/01/30 06:36:26;;;;;;;3.10;2.80;;;23.60;99.90;;;;;;5082336;28;20032;-59
2023/01/30 06:38:53;;;;;;;4.25;2.60;;;23.50;99.90;;;;;;5064428;28;20369;-61
2023/01/30 06:41:21;;;;;;;3.08;2.70;;;23.30;99.90;;;;;;5081105;28;20159;-62
2023/01/30 06:43:48;;;;;;;3.88;2.97;;;23.20;99.90;;;;;;5081229;28;20039;-62
2023/01/30 06:46:15;;;;;;;3.72;2.20;;;23.10;99.90;;;;;;5081471;28;20043;-61
2023/01/30 06:48:42;;;;;;;4.57;2.55;;;23.00;99.90;;;;;;5080046;28;20024;-67
2023/01/30 06:51:08;;;;;;;5.00;2.60;;;23.00;99.90;;;;;;5079817;28;20028;-67
2023/01/30 06:53:36;;;;;;;4.72;3.53;;;22.90;99.90;;;;;;5080943;28;20028;-65
2023/01/30 06:56:03;;;;;;;4.90;3.20;;;22.80;99.90;;;;;;5078978;28;20107;-67
2023/01/30 06:58:30;;;;;;;6.85;4.15;;;22.70;99.90;;;;;;5079039;28;20479;-61
2023/01/30 07:00:57;;;;;;;6.78;3.40;;;22.60;99.90;;;;;;5080737;28;20067;-63
2023/01/30 07:03:24;;;;;;;5.40;3.10;;;22.60;99.90;;;;;;5062783;28;20036;-68
2023/01/30 07:05:51;;;;;;;2.70;2.15;;;22.50;99.90;;;;;;5080899;28;20829;-61
2023/01/30 07:08:18;;;;;;;4.88;2.47;;;22.50;99.90;;;;;;5083100;28;20042;-63
2023/01/30 07:10:45;;;;;;;3.42;2.03;;;22.50;99.90;;;;;;5079913;28;20146;-66
2023/01/30 07:13:13;;;;;;;6.22;2.40;;;22.50;99.90;;;;;;5083296;28;20028;-68
2023/01/30 07:15:40;;;;;;;2.72;1.80;;;22.40;99.90;;;;;;5080425;28;20031;-62
2023/01/30 07:18:07;;;;;;;2.50;2.05;;;22.30;99.90;;;;;;5078093;28;20032;-63
2023/01/30 07:20:34;;;;;;;4.30;1.92;;;22.20;99.90;;;;;;5078354;28;20040;-63
2023/01/30 07:23:01;;;;;;;2.70;1.80;;;22.20;99.90;;;;;;5077529;28;20491;-65
2023/01/30 07:25:29;;;;;;;5.38;2.50;;;22.20;99.90;;;;;;5078285;28;20562;-65
2023/01/30 07:27:59;;;;;;;6.72;1.88;;;22.20;99.90;;;;;;5076846;28;20027;-63
2023/01/30 07:30:27;;;;;;;6.95;1.48;;;22.10;99.90;;;;;;5075955;28;20031;-64
2023/01/30 07:32:59;;;;;;;3.50;2.05;;;22.10;99.90;;;;;;5077674;28;20036;-68
2023/01/30 07:35:28;;;;;;;2.22;1.30;;;22.10;99.90;;;;;;5076744;28;20069;-62
2023/01/30 07:37:56;;;;;;;4.25;2.13;;;22.10;99.90;;;;;;5079677;28;20616;-64
2023/01/30 07:40:23;;;;;;;3.15;1.55;;;22.10;99.90;;;;;;5079384;28;20490;-67
2023/01/30 07:43:07;;;;;;;1.95;1.40;;;22.10;99.90;;;;;;5078073;28;20059;-62
2023/01/30 07:45:45;;;;;;;2.50;0.93;;;22.10;99.90;;;;;;5078739;28;20077;-68
2023/01/30 07:48:15;;;;;;;3.72;1.23;;;22.00;99.90;;;;;;5078116;28;20024;-63
2023/01/30 07:50:42;;;;;;;1.55;0.70;;;22.00;99.90;;;;;;5079755;28;20028;-61
2023/01/30 07:53:12;;;;;;;2.15;0.80;;;21.90;99.90;;;;;;5079569;28;20020;-69
2023/01/30 07:55:39;;;;;;;6.13;1.75;;;21.90;99.90;;;;;;5078172;28;20051;-63
2023/01/30 07:58:06;;;;;;;0.95;0.63;;;21.90;99.90;;;;;;5076543;28;20035;-65
2023/01/30 08:00:34;;;;;;;1.38;0.95;;;21.90;99.90;;;;;;5077534;28;20111;-61
2023/01/30 08:03:01;;;;;;;3.10;1.13;;;21.90;99.90;;;;;;5079495;28;20031;-70
2023/01/30 08:05:28;;;;;;;6.30;1.20;;;21.90;99.90;;;;;;5078855;28;20498;-64
2023/01/30 08:07:56;;;;;;;1.77;0.80;;;21.80;99.90;;;;;;5078986;28;20107;-63
2023/01/30 08:10:23;;;;;;;1.95;1.05;;;21.90;99.90;;;;;;5078735;28;20578;-63
2023/01/30 08:12:51;;;;;;;3.25;1.02;;;21.80;99.90;;;;;;5078265;28;20031;-68
2023/01/30 08:15:18;;;;;;;2.50;0.95;;;21.80;99.90;;;;;;5079052;28;20051;-65
2023/01/30 08:17:52;;;;;;;1.92;0.80;;;21.90;99.90;;;;;;5077188;28;20023;-62
2023/01/30 08:20:19;;;;;;;0.65;0.50;;;21.80;99.90;;;;;;5079714;28;20555;-67
2023/01/30 08:22:45;;;;;;;3.20;1.27;;;21.80;99.90;;;;;;5077540;28;20431;-62
2023/01/30 08:25:12;;;;;;;1.98;0.90;;;21.70;99.90;;;;;;5079133;28;20052;-61
2023/01/30 08:27:39;;;;;;;1.60;1.00;;;21.70;99.90;;;;;;5078749;28;20016;-63
2023/01/30 08:30:07;;;;;;;3.92;3.35;;;21.60;99.90;;;;;;5077672;28;20732;-65
2023/01/30 08:32:34;;;;;;;1.95;1.20;;;21.60;99.90;;;;;;5079502;28;20032;-68
2023/01/30 08:35:01;;;;;;;4.35;0.90;;;21.60;99.90;;;;;;5079107;28;20127;-63
2023/01/30 08:37:28;;;;;;;2.40;1.60;;;21.60;99.90;;;;;;5078239;28;20082;-64
2023/01/30 08:39:55;;;;;;;3.20;1.52;;;21.70;99.90;;;;;;5082801;28;20077;-64
2023/01/30 08:42:22;;;;;;;2.53;1.95;;;21.70;99.90;;;;;;5081169;28;20039;-68
2023/01/30 08:44:49;;;;;;;2.83;1.70;;;21.70;99.90;;;;;;5082145;28;20100;-65
2023/01/30 08:47:15;;;;;;;4.40;2.20;;;21.70;99.90;;;;;;5083288;28;20507;-70
2023/01/30 08:49:42;;;;;;;3.13;2.00;;;21.70;99.90;;;;;;5081891;28;20028;-62
2023/01/30 08:52:10;;;;;;;2.78;1.90;;;21.70;99.90;;;;;;5084404;28;20020;-65
2023/01/30 08:54:37;;;;;;;3.28;1.70;;;21.70;99.90;;;;;;5087471;28;20249;-65
2023/01/30 08:57:04;;;;;;;3.58;2.15;;;21.70;99.90;;;;;;5084047;28;20023;-64
2023/01/30 08:59:30;;;;;;;4.30;1.73;;;21.60;99.90;;;;;;5081659;28;20027;-60
2023/01/30 09:01:59;;;;;;;2.70;1.75;;;21.60;99.90;;;;;;5081913;28;20072;-61
2023/01/30 09:04:29;;;;;;;4.85;2.40;;;21.60;99.90;;;;;;5083375;28;20391;-61
2023/01/30 09:06:56;;;;;;;2.45;1.45;;;21.60;99.90;;;;;;5081406;28;20024;-65
2023/01/30 09:09:23;;;;;;;1.70;1.02;;;21.70;99.90;;;;;;5083305;28;20395;-65
2023/01/30 09:11:53;;;;;;;2.30;1.13;;;21.70;99.90;;;;;;5080386;28;20030;-61
2023/01/30 09:14:20;;;;;;;1.55;1.00;;;21.70;99.90;;;;;;5084357;28;20038;-59
2023/01/30 09:16:57;;;;;;;2.05;1.10;;;21.70;99.90;;;;;;5082919;28;20153;-60
2023/01/30 09:19:36;;;;;;;2.47;1.40;;;21.70;99.90;;;;;;5081933;28;20477;-61
2023/01/30 09:22:03;;;;;;;9.80;2.20;;;21.60;99.90;;;;;;5082317;28;20048;-67
2023/01/30 09:24:30;;;;;;;2.20;1.20;;;21.60;99.90;;;;;;5083588;28;20028;-60
2023/01/30 09:26:57;;;;;;;2.40;1.10;;;21.60;99.90;;;;;;5082451;28;20024;-65
2023/01/30 09:29:25;;;;;;;1.25;0.75;;;21.60;99.90;;;;;;5080898;28;20053;-61
2023/01/30 09:31:55;;;;;;;1.73;1.13;;;21.60;99.90;;;;;;5082351;28;20036;-60
2023/01/30 09:34:27;;;;;;;0.43;0.43;;;21.60;99.90;;;;;;5079796;28;20466;-63
2023/01/30 09:37:01;;;;;;;2.45;0.70;;;21.60;99.90;;;;;;5027698;28;20040;-64
2023/01/30 09:39:29;;;;;;;2.25;0.60;;;21.60;99.90;;;;;;5025254;28;20037;-61
2023/01/30 09:42:05;;;;;;;1.17;0.70;;;21.60;99.90;;;;;;5026656;28;20561;-67
2023/01/30 09:44:37;;;;;;;1.38;0.50;;;21.60;99.90;;;;;;5032841;28;20607;-65
2023/01/30 09:47:11;;;;;;;2.70;1.05;;;21.60;99.90;;;;;;5026627;28;20116;-66
2023/01/30 09:50:10;;;;;;;4.40;2.85;;;21.50;99.90;;;;;;5028418;28;20053;-59
2023/01/30 09:52:50;;;;;;;3.38;2.45;;;21.50;99.90;;;;;;5025171;28;20100;-68
2023/01/30 09:55:24;;;;;;;4.05;2.67;;;21.50;99.90;;;;;;5030041;28;20475;-66
2023/01/30 09:57:52;;;;;;;4.88;2.80;;;21.50;99.90;;;;;;5035893;28;20113;-61
2023/01/30 10:00:42;;;;;;;4.50;3.92;;;21.50;99.90;;;;;;5026519;28;20076;-61
2023/01/30 10:03:14;;;;;;;6.05;4.20;;;21.50;99.90;;;;;;5036447;28;20389;-59
2023/01/30 10:05:50;;;;;;;3.53;3.00;;;21.40;99.90;;;;;;5029418;28;20104;-62
2023/01/30 10:08:35;;;;;;;3.80;2.28;;;21.50;99.90;;;;;;5027838;28;20556;-63
2023/01/30 10:11:20;;;;;;;1.02;0.68;;;21.50;99.90;;;;;;5030829;28;20498;-62
2023/01/30 10:14:19;;;;;;;1.85;0.70;;;21.50;99.90;;;;;;5043271;28;20443;-68
2023/01/30 10:17:09;;;;;;;1.10;0.77;;;21.50;99.90;;;;;;4995944;28;20444;-60
2023/01/30 10:19:54;;;;;;;1.45;0.60;;;21.50;99.90;;;;;;4989944;28;20078;-63
2023/01/30 10:22:42;;;;;;;4.25;0.55;;;21.40;99.90;;;;;;5064137;23;20556;-67
2023/01/30 10:25:27;;;;;;;0.32;0.32;;;21.50;99.90;;;;;;5062646;28;20028;-66
2023/01/30 10:28:28;;;;;;;1.40;0.60;;;21.50;99.90;;;;;;5067146;28;20032;-66
2023/01/30 10:31:11;;;;;;;1.95;0.60;;;21.50;99.90;;;;;;5058017;28;20123;-59
2023/01/30 10:34:10;;;;;;;0.80;0.45;;;21.50;99.90;;;;;;5065435;28;20028;-60
2023/01/30 10:37:17;;;;;;;2.17;0.57;;;21.50;99.90;;;;;;5065155;28;20029;-60
2023/01/30 10:40:04;;;;;;;0.88;0.60;;;21.50;99.90;;;;;;5058978;28;20041;-65
2023/01/30 10:42:35;;;;;;;2.97;0.80;;;21.40;99.90;;;;;;5061240;28;20112;-61
2023/01/30 10:45:12;;;;;;;1.38;0.80;;;21.40;99.90;;;;;;5063969;28;20024;-62
2023/01/30 10:47:50;;;;;;;2.75;0.80;;;21.40;99.90;;;;;;5065572;28;20086;-59
2023/01/30 10:50:43;;;;;;;1.95;0.95;;;21.30;99.90;;;;;;5065860;28;20412;-66
2023/01/30 10:53:20;;;;;;;2.38;1.00;;;21.30;99.90;;;;;;4967289;28;20074;-66
2023/01/30 10:56:03;;;;;;;4.07;1.25;;;21.20;99.90;;;;;;4968115;28;20468;-64
2023/01/30 10:58:45;;;;;;;2.15;1.10;;;21.20;99.90;;;;;;4966952;28;20112;-62
2023/01/30 11:01:35;;;;;;;3.05;1.27;;;21.20;99.90;;;;;;4969812;28;20031;-66
2023/01/30 11:04:06;;;;;;;2.50;1.10;;;21.10;99.90;;;;;;4963223;28;20553;-65
2023/01/30 11:06:34;;;;;;;1.90;1.10;;;21.10;99.90;;;;;;4963351;28;20034;-66
2023/01/30 11:09:02;;;;;;;4.05;1.40;;;21.20;99.90;;;;;;4963619;28;20122;-67
2023/01/30 11:11:48;;;;;;;2.50;1.15;;;21.20;99.90;;;;;;4963590;28;20122;-64
2023/01/30 11:14:15;;;;;;;2.63;1.13;;;21.20;99.90;;;;;;4962563;28;20507;-59
2023/01/30 11:16:53;;;;;;;4.88;1.38;;;21.10;99.90;;;;;;4963503;28;20050;-59
2023/01/30 11:19:30;;;;;;;5.22;1.63;;;21.10;99.90;;;;;;4962468;28;20081;-57
2023/01/30 11:22:02;;;;;;;3.88;1.70;;;21.20;99.90;;;;;;4962830;28;20091;-60
2023/01/30 11:24:31;;;;;;;5.97;1.58;;;21.10;99.90;;;;;;4962181;28;20086;-60
2023/01/30 11:27:18;;;;;;;3.72;1.33;;;21.20;99.90;;;;;;4963454;28;20035;-60
2023/01/30 11:29:46;;;;;;;1.73;1.33;;;21.20;99.90;;;;;;4988145;28;20066;-61
2023/01/30 11:32:26;;;;;;;3.03;1.48;;;21.20;99.90;;;;;;5064122;28;20052;-66
2023/01/30 11:35:24;;;;;;;3.90;1.13;;;21.20;99.90;;;;;;5064022;28;20423;-62
2023/01/30 11:37:52;;;;;;;4.07;1.40;;;21.20;99.90;;;;;;4962339;28;20039;-59
2023/01/30 11:40:24;;;;;;;3.83;1.13;;;21.20;99.90;;;;;;4961927;28;20042;-60
2023/01/30 11:43:04;;;;;;;3.53;1.10;;;21.20;99.90;;;;;;4961971;28;20043;-60
2023/01/30 11:45:45;;;;;;;2.30;1.40;;;21.20;99.90;;;;;;4963667;28;20515;-58
2023/01/30 11:48:25;;;;;;;3.28;1.23;;;21.30;99.90;;;;;;4963204;28;20187;-61
2023/01/30 11:51:03;;;;;;;3.47;0.90;;;21.20;99.90;;;;;;4965098;28;20491;-61
2023/01/30 11:53:30;;;;;;;1.90;0.88;;;21.20;99.90;;;;;;4966437;28;20448;-63
2023/01/30 11:56:06;;;;;;;1.38;0.80;;;21.20;99.90;;;;;;4967546;28;20030;-61
2023/01/30 11:58:35;;;;;;;1.17;0.60;;;21.30;99.90;;;;;;4965572;28;20229;-62
2023/01/30 12:01:06;;;;;;;3.22;0.90;;;21.30;99.90;;;;;;4967562;28;20038;-64
2023/01/30 12:03:38;;;;;;;2.58;0.90;;;21.20;99.90;;;;;;4966733;28;20182;-64
2023/01/30 12:06:06;;;;;;;3.50;1.00;;;21.30;99.90;;;;;;4967290;28;20062;-62
2023/01/30 12:08:37;;;;;;;1.63;1.10;;;21.20;99.90;;;;;;4960834;28;20233;-64
2023/01/30 12:11:17;;;;;;;1.17;0.68;;;21.20;99.90;;;;;;4967059;28;20041;-64
2023/01/30 12:13:45;;;;;;;1.60;0.60;;;21.30;99.90;;;;;;4993385;28;20345;-61
2023/01/30 12:16:37;;;;;;;1.35;0.93;;;21.30;99.90;;;;;;5068075;28;20366;-61
2023/01/30 12:19:06;;;;;;;1.45;0.50;;;21.30;99.90;;;;;;5068178;28;20034;-62
2023/01/30 12:21:51;;;;;;;2.63;0.80;;;21.30;99.90;;;;;;5067425;28;20047;-61
2023/01/30 12:24:45;;;;;;;2.55;0.80;;;21.30;99.90;;;;;;5063794;28;20139;-64
2023/01/30 12:27:36;;;;;;;1.25;0.73;;;21.30;99.90;;;;;;4966169;28;20175;-61
2023/01/30 12:30:28;;;;;;;2.17;0.70;;;21.30;99.90;;;;;;4966329;28;20035;-62
2023/01/30 12:33:00;;;;;;;4.10;0.73;;;21.30;99.90;;;;;;4966489;28;20133;-61
2023/01/30 12:35:54;;;;;;;2.63;1.07;;;21.30;99.90;;;;;;4964477;28;20470;-60
2023/01/30 12:38:26;;;;;;;5.03;0.60;;;21.30;99.90;;;;;;4970937;28;20125;-63
2023/01/30 12:41:42;;;;;;;0.40;0.40;;;21.30;99.90;;;;;;4967452;28;20573;-63
2023/01/30 12:44:30;;;;;;;0.77;0.60;;;21.30;99.90;;;;;;4909117;29;20040;-63
2023/01/30 12:47:09;;;;;;;1.92;0.52;;;21.30;99.90;;;;;;4905573;29;20058;-61
2023/01/30 12:49:54;;;;;;;6.22;0.57;;;21.30;99.90;;;;;;4908677;29;20044;-63
2023/01/30 12:52:40;;;;;;;1.17;0.70;;;21.20;99.90;;;;;;4906974;29;20044;-64
2023/01/30 12:55:25;;;;;;;2.55;0.70;;;21.10;99.90;;;;;;4913077;29;20532;-64
2023/01/30 12:58:01;;;;;;;1.17;0.70;;;21.10;99.90;;;;;;4904736;29;20037;-61
2023/01/30 13:01:08;;;;;;;2.10;0.80;;;21.20;99.90;;;;;;4902180;29;20040;-62
2023/01/30 13:03:37;;;;;;;4.10;0.63;;;21.30;99.90;;;;;;4918910;28;20145;-64
2023/01/30 13:06:06;;;;;;;1.13;0.50;;;21.30;99.90;;;;;;4954841;28;20050;-60
2023/01/30 13:09:04;;;;;;;2.83;0.82;;;21.30;99.90;;;;;;4951586;28;20426;-61
2023/01/30 13:12:07;;;;;;;1.35;0.50;;;21.30;99.90;;;;;;4953002;28;20079;-63
2023/01/30 13:14:39;;;;;;;;;;;21.20;99.90;;;;;;4955425;28;20051;-61
2023/01/30 13:17:37;;;;;;;3.10;0.50;;;21.20;99.90;;;;;;4950435;28;19917;-60
2023/01/30 13:20:14;;;;;;;1.77;0.75;;;21.20;99.90;;;;;;4977109;28;20122;-60
2023/01/30 13:22:55;;;;;;;3.28;0.60;;;21.20;99.90;;;;;;5064622;28;20086;-64
2023/01/30 13:25:25;;;;;;;1.67;0.50;;;21.10;99.90;;;;;;5068163;28;20056;-61